sensor_id;sensor_type;location;lat;lon;timestamp;pressure;altitude;pressure_sealevel;temperature;humidity
73952;BME280;62304;47.662;18.324;2023-10-13T00:00:57;100513.62;;;16.04;98.21
73952;BME280;62304;47.662;18.324;2023-10-13T00:04:03;100513.59;;;16.11;97.57
73952;BME280;62304;47.662;18.324;2023-10-13T00:07:09;100508.00;;;16.07;98.05
73952;BME280;62304;47.662;18.324;2023-10-13T00:10:15;100495.63;;;16.05;97.65
73952;BME280;62304;47.662;18.324;2023-10-13T00:13:21;100499.56;;;16.18;97.32
73952;BME280;62304;47.662;18.324;2023-10-13T00:16:24;100495.59;;;16.22;96.82
73952;BME280;62304;47.662;18.324;2023-10-13T00:19:39;100495.59;;;16.08;96.26
73952;BME280;62304;47.662;18.324;2023-10-13T00:22:49;100498.44;;;15.94;98.14
73952;BME280;62304;47.662;18.324;2023-10-13T00:25:55;100494.81;;;16.04;97.65
73952;BME280;62304;47.662;18.324;2023-10-13T00:29:03;100504.00;;;16.05;98.00
73952;BME280;62304;47.662;18.324;2023-10-13T00:32:31;100497.19;;;16.09;97.17
73952;BME280;62304;47.662;18.324;2023-10-13T00:35:35;100504.78;;;16.19;97.20
73952;BME280;62304;47.662;18.324;2023-10-13T00:38:38;100504.38;;;16.17;96.75
73952;BME280;62304;47.662;18.324;2023-10-13T00:41:43;100493.22;;;16.03;97.93
73952;BME280;62304;47.662;18.324;2023-10-13T00:45:00;100482.78;;;16.21;96.73
73952;BME280;62304;47.662;18.324;2023-10-13T00:48:04;100486.00;;;16.16;97.00
73952;BME280;62304;47.662;18.324;2023-10-13T00:51:17;100490.78;;;16.16;96.85
73952;BME280;62304;47.662;18.324;2023-10-13T00:54:25;100500.34;;;16.36;95.60
73952;BME280;62304;47.662;18.324;2023-10-13T00:57:29;100499.56;;;16.25;95.86
73952;BME280;62304;47.662;18.324;2023-10-13T01:00:33;100503.19;;;16.04;96.10
73952;BME280;62304;47.662;18.324;2023-10-13T01:03:50;100504.75;;;16.23;96.49
73952;BME280;62304;47.662;18.324;2023-10-13T01:06:59;100516.31;;;16.42;95.78
73952;BME280;62304;47.662;18.324;2023-10-13T01:10:03;100511.53;;;16.43;95.93
73952;BME280;62304;47.662;18.324;2023-10-13T01:13:10;100505.56;;;16.23;96.86
73952;BME280;62304;47.662;18.324;2023-10-13T01:16:13;100496.41;;;16.12;96.26
73952;BME280;62304;47.662;18.324;2023-10-13T01:19:18;100490.88;;;15.70;99.44
73952;BME280;62304;47.662;18.324;2023-10-13T01:22:28;100480.87;;;15.76;99.89
73952;BME280;62304;47.662;18.324;2023-10-13T01:25:31;100484.84;;;15.96;98.78
73952;BME280;62304;47.662;18.324;2023-10-13T01:28:35;100494.44;;;15.95;98.86
73952;BME280;62304;47.662;18.324;2023-10-13T01:31:47;100502.00;;;16.02;98.34
73952;BME280;62304;47.662;18.324;2023-10-13T01:34:50;100496.03;;;15.96;99.08
73952;BME280;62304;47.662;18.324;2023-10-13T01:37:59;100496.47;;;15.84;99.71
73952;BME280;62304;47.662;18.324;2023-10-13T01:41:05;100512.00;;;16.10;98.87
73952;BME280;62304;47.662;18.324;2023-10-13T01:44:09;100517.19;;;16.18;98.25
73952;BME280;62304;47.662;18.324;2023-10-13T01:47:17;100504.75;;;16.26;97.58
73952;BME280;62304;47.662;18.324;2023-10-13T01:50:21;100513.94;;;16.27;97.43
73952;BME280;62304;47.662;18.324;2023-10-13T01:53:31;100509.13;;;16.38;96.69
73952;BME280;62304;47.662;18.324;2023-10-13T01:56:34;100501.94;;;16.26;97.35
73952;BME280;62304;47.662;18.324;2023-10-13T01:59:46;100508.75;;;16.32;97.25
73952;BME280;62304;47.662;18.324;2023-10-13T02:02:52;100512.34;;;16.40;96.78
73952;BME280;62304;47.662;18.324;2023-10-13T02:05:56;100513.94;;;16.44;96.86
73952;BME280;62304;47.662;18.324;2023-10-13T02:09:08;100511.50;;;16.50;96.14
73952;BME280;62304;47.662;18.324;2023-10-13T02:12:20;100523.53;;;16.47;95.96
73952;BME280;62304;47.662;18.324;2023-10-13T02:15:39;100522.69;;;16.50;95.62
73952;BME280;62304;47.662;18.324;2023-10-13T02:18:46;100532.75;;;16.33;97.06
73952;BME280;62304;47.662;18.324;2023-10-13T02:21:54;100549.53;;;16.37;97.79
73952;BME280;62304;47.662;18.324;2023-10-13T02:25:08;100549.91;;;16.49;97.37
73952;BME280;62304;47.662;18.324;2023-10-13T02:28:21;100550.69;;;16.53;97.19
73952;BME280;62304;47.662;18.324;2023-10-13T02:31:31;100547.88;;;16.60;96.45
73952;BME280;62304;47.662;18.324;2023-10-13T02:34:34;100538.72;;;16.32;97.50
73952;BME280;62304;47.662;18.324;2023-10-13T02:37:38;100529.53;;;16.45;96.92
73952;BME280;62304;47.662;18.324;2023-10-13T02:40:45;100519.13;;;16.42;97.23
73952;BME280;62304;47.662;18.324;2023-10-13T02:43:48;100510.31;;;16.37;97.87
73952;BME280;62304;47.662;18.324;2023-10-13T02:46:52;100499.91;;;16.51;97.54
73952;BME280;62304;47.662;18.324;2023-10-13T02:49:58;100513.91;;;16.48;97.44
73952;BME280;62304;47.662;18.324;2023-10-13T02:53:04;100524.72;;;16.49;98.22
73952;BME280;62304;47.662;18.324;2023-10-13T02:56:15;100529.06;;;16.61;97.42
73952;BME280;62304;47.662;18.324;2023-10-13T02:59:26;100506.38;;;16.27;99.79
73952;BME280;62304;47.662;18.324;2023-10-13T03:02:43;100486.78;;;16.27;99.68
73952;BME280;62304;47.662;18.324;2023-10-13T03:06:01;100466.81;;;16.18;100.00
73952;BME280;62304;47.662;18.324;2023-10-13T03:09:07;100445.59;;;16.24;100.00
73952;BME280;62304;47.662;18.324;2023-10-13T03:12:25;100458.75;;;16.34;99.99
73952;BME280;62304;47.662;18.324;2023-10-13T03:15:31;100473.56;;;16.28;99.47
73952;BME280;62304;47.662;18.324;2023-10-13T03:18:35;100482.81;;;16.11;100.00
73952;BME280;62304;47.662;18.324;2023-10-13T03:21:38;100455.94;;;16.34;100.00
73952;BME280;62304;47.662;18.324;2023-10-13T03:24:47;100448.75;;;16.26;100.00
73952;BME280;62304;47.662;18.324;2023-10-13T03:27:51;100449.19;;;16.25;100.00
73952;BME280;62304;47.662;18.324;2023-10-13T03:30:54;100445.22;;;16.22;100.00
73952;BME280;62304;47.662;18.324;2023-10-13T03:33:58;100448.38;;;16.24;100.00
73952;BME280;62304;47.662;18.324;2023-10-13T03:37:03;100449.09;;;16.46;100.00
73952;BME280;62304;47.662;18.324;2023-10-13T03:40:21;100461.06;;;16.57;100.00
73952;BME280;62304;47.662;18.324;2023-10-13T03:43:25;100457.84;;;16.58;100.00
73952;BME280;62304;47.662;18.324;2023-10-13T03:46:32;100454.69;;;16.53;100.00
73952;BME280;62304;47.662;18.324;2023-10-13T03:49:36;100448.28;;;16.52;100.00
73952;BME280;62304;47.662;18.324;2023-10-13T03:52:40;100455.47;;;16.53;100.00
73952;BME280;62304;47.662;18.324;2023-10-13T03:55:44;100458.78;;;16.27;100.00
73952;BME280;62304;47.662;18.324;2023-10-13T03:58:50;100455.16;;;16.41;99.96
73952;BME280;62304;47.662;18.324;2023-10-13T04:01:57;100445.94;;;16.44;99.48
73952;BME280;62304;47.662;18.324;2023-10-13T04:05:06;100445.94;;;16.44;99.33
73952;BME280;62304;47.662;18.324;2023-10-13T04:08:12;100449.16;;;16.39;99.91
73952;BME280;62304;47.662;18.324;2023-10-13T04:11:30;100441.47;;;16.57;99.10
73952;BME280;62304;47.662;18.324;2023-10-13T04:14:53;100448.22;;;16.70;98.39
73952;BME280;62304;47.662;18.324;2023-10-13T04:18:09;100453.81;;;16.70;98.02
73952;BME280;62304;47.662;18.324;2023-10-13T04:21:36;100457.69;;;16.86;97.24
73952;BME280;62304;47.662;18.324;2023-10-13T04:24:58;100455.03;;;16.65;97.76
73952;BME280;62304;47.662;18.324;2023-10-13T04:28:24;100457.78;;;16.76;97.92
73952;BME280;62304;47.662;18.324;2023-10-13T04:31:30;100464.47;;;16.92;96.69
73952;BME280;62304;47.662;18.324;2023-10-13T04:35:01;100469.72;;;16.87;97.05
73952;BME280;62304;47.662;18.324;2023-10-13T04:38:13;100474.37;;;17.07;96.23
73952;BME280;62304;47.662;18.324;2023-10-13T04:41:40;100470.03;;;16.99;96.11
73952;BME280;62304;47.662;18.324;2023-10-13T04:44:49;100477.34;;;16.83;96.86
73952;BME280;62304;47.662;18.324;2023-10-13T04:47:55;100479.19;;;17.03;96.00
73952;BME280;62304;47.662;18.324;2023-10-13T04:51:17;100487.72;;;16.86;96.35
73952;BME280;62304;47.662;18.324;2023-10-13T04:54:46;100476.12;;;16.87;96.30
73952;BME280;62304;47.662;18.324;2023-10-13T04:57:55;100484.22;;;16.64;96.82
73952;BME280;62304;47.662;18.324;2023-10-13T05:01:19;100487.03;;;16.64;97.65
73952;BME280;62304;47.662;18.324;2023-10-13T05:04:30;100489.41;;;16.76;97.16
73952;BME280;62304;47.662;18.324;2023-10-13T05:07:41;100486.28;;;16.60;97.66
73952;BME280;62304;47.662;18.324;2023-10-13T05:11:05;100501.41;;;16.73;96.90
73952;BME280;62304;47.662;18.324;2023-10-13T05:14:27;100496.16;;;16.82;96.80
73952;BME280;62304;47.662;18.324;2023-10-13T05:17:49;100509.38;;;16.78;96.70
73952;BME280;62304;47.662;18.324;2023-10-13T05:21:11;100504.59;;;16.72;96.58
73952;BME280;62304;47.662;18.324;2023-10-13T05:24:33;100513.84;;;16.69;97.82
73952;BME280;62304;47.662;18.324;2023-10-13T05:27:55;100513.88;;;16.58;98.36
73952;BME280;62304;47.662;18.324;2023-10-13T05:31:32;100512.63;;;16.70;98.14
73952;BME280;62304;47.662;18.324;2023-10-13T05:34:55;100512.22;;;16.75;97.58
73952;BME280;62304;47.662;18.324;2023-10-13T05:38:17;100521.84;;;16.63;98.44
73952;BME280;62304;47.662;18.324;2023-10-13T05:41:39;100536.25;;;16.69;97.83
73952;BME280;62304;47.662;18.324;2023-10-13T05:45:01;100539.47;;;16.60;98.64
73952;BME280;62304;47.662;18.324;2023-10-13T05:48:19;100540.25;;;16.61;98.65
73952;BME280;62304;47.662;18.324;2023-10-13T05:51:38;100546.69;;;16.51;99.46
73952;BME280;62304;47.662;18.324;2023-10-13T05:54:40;100551.12;;;16.45;99.27
73952;BME280;62304;47.662;18.324;2023-10-13T05:58:03;100562.72;;;16.50;99.63
73952;BME280;62304;47.662;18.324;2023-10-13T06:01:25;100569.06;;;16.61;99.70
73952;BME280;62304;47.662;18.324;2023-10-13T06:04:48;100560.28;;;16.52;99.65
73952;BME280;62304;47.662;18.324;2023-10-13T06:08:09;100570.69;;;16.48;100.00
73952;BME280;62304;47.662;18.324;2023-10-13T06:11:31;100586.72;;;16.51;100.00
73952;BME280;62304;47.662;18.324;2023-10-13T06:14:53;100590.69;;;16.57;100.00
73952;BME280;62304;47.662;18.324;2023-10-13T06:18:16;100595.06;;;16.65;100.00
73952;BME280;62304;47.662;18.324;2023-10-13T06:21:38;100588.28;;;16.66;99.76
73952;BME280;62304;47.662;18.324;2023-10-13T06:25:00;100585.91;;;16.54;100.00
73952;BME280;62304;47.662;18.324;2023-10-13T06:28:21;100587.88;;;16.57;100.00
73952;BME280;62304;47.662;18.324;2023-10-13T06:31:43;100587.06;;;16.64;100.00
73952;BME280;62304;47.662;18.324;2023-10-13T06:34:49;100578.66;;;16.64;100.00
73952;BME280;62304;47.662;18.324;2023-10-13T06:37:55;100579.84;;;16.70;100.00
73952;BME280;62304;47.662;18.324;2023-10-13T06:41:06;100586.22;;;16.77;100.00
73952;BME280;62304;47.662;18.324;2023-10-13T06:44:10;100594.59;;;16.84;100.00
73952;BME280;62304;47.662;18.324;2023-10-13T06:47:19;100594.56;;;16.91;100.00
73952;BME280;62304;47.662;18.324;2023-10-13T06:50:23;100596.16;;;16.99;100.00
73952;BME280;62304;47.662;18.324;2023-10-13T06:53:33;100599.25;;;17.12;100.00
73952;BME280;62304;47.662;18.324;2023-10-13T06:56:40;100605.69;;;17.12;100.00
73952;BME280;62304;47.662;18.324;2023-10-13T06:59:43;100614.47;;;17.14;100.00
73952;BME280;62304;47.662;18.324;2023-10-13T07:02:50;100611.25;;;17.19;99.88
73952;BME280;62304;47.662;18.324;2023-10-13T07:05:56;100606.44;;;17.20;99.64
73952;BME280;62304;47.662;18.324;2023-10-13T07:09:02;100612.81;;;17.27;99.82
73952;BME280;62304;47.662;18.324;2023-10-13T07:12:07;100599.91;;;17.44;99.39
73952;BME280;62304;47.662;18.324;2023-10-13T07:15:20;100600.31;;;17.49;99.78
73952;BME280;62304;47.662;18.324;2023-10-13T07:18:23;100606.22;;;17.58;98.83
73952;BME280;62304;47.662;18.324;2023-10-13T07:21:26;100612.16;;;17.71;97.87
73952;BME280;62304;47.662;18.324;2023-10-13T07:24:34;100611.66;;;17.86;96.86
73952;BME280;62304;47.662;18.324;2023-10-13T07:27:43;100606.72;;;18.01;96.91
73952;BME280;62304;47.662;18.324;2023-10-13T07:30:48;100609.84;;;18.10;95.97
73952;BME280;62304;47.662;18.324;2023-10-13T07:33:59;100607.44;;;18.08;95.34
73952;BME280;62304;47.662;18.324;2023-10-13T07:37:08;100606.56;;;18.18;95.48
73952;BME280;62304;47.662;18.324;2023-10-13T07:40:22;100601.22;;;18.34;95.53
73952;BME280;62304;47.662;18.324;2023-10-13T07:43:28;100597.38;;;18.55;94.25
73952;BME280;62304;47.662;18.324;2023-10-13T07:46:36;100602.44;;;18.70;93.49
73952;BME280;62304;47.662;18.324;2023-10-13T07:49:40;100598.25;;;18.85;91.47
73952;BME280;62304;47.662;18.324;2023-10-13T07:52:44;100597.63;;;19.04;91.82
73952;BME280;62304;47.662;18.324;2023-10-13T07:56:02;100605.06;;;19.17;91.04
73952;BME280;62304;47.662;18.324;2023-10-13T07:59:08;100602.59;;;19.27;90.25
73952;BME280;62304;47.662;18.324;2023-10-13T08:02:17;100613.22;;;19.42;88.66
73952;BME280;62304;47.662;18.324;2023-10-13T08:05:51;100613.47;;;19.51;88.44
73952;BME280;62304;47.662;18.324;2023-10-13T08:09:09;100618.47;;;19.67;89.08
73952;BME280;62304;47.662;18.324;2023-10-13T08:12:33;100609.25;;;19.89;88.47
73952;BME280;62304;47.662;18.324;2023-10-13T08:15:42;100605.69;;;20.12;86.43
73952;BME280;62304;47.662;18.324;2023-10-13T08:18:53;100603.06;;;20.24;85.17
73952;BME280;62304;47.662;18.324;2023-10-13T08:21:58;100601.91;;;20.22;83.10
73952;BME280;62304;47.662;18.324;2023-10-13T08:25:03;100604.16;;;20.30;82.63
73952;BME280;62304;47.662;18.324;2023-10-13T08:28:45;100604.72;;;20.44;83.27
73952;BME280;62304;47.662;18.324;2023-10-13T08:31:59;100590.47;;;20.51;82.47
73952;BME280;62304;47.662;18.324;2023-10-13T08:35:17;100609.38;;;20.74;81.75
73952;BME280;62304;47.662;18.324;2023-10-13T08:38:33;100602.38;;;21.01;80.19
73952;BME280;62304;47.662;18.324;2023-10-13T08:41:54;100592.81;;;21.15;78.71
73952;BME280;62304;47.662;18.324;2023-10-13T08:45:17;100598.22;;;21.45;77.58
73952;BME280;62304;47.662;18.324;2023-10-13T08:48:26;100590.84;;;21.67;76.15
73952;BME280;62304;47.662;18.324;2023-10-13T08:51:35;100590.00;;;22.18;76.91
73952;BME280;62304;47.662;18.324;2023-10-13T08:54:48;100596.72;;;22.97;73.96
73952;BME280;62304;47.662;18.324;2023-10-13T08:58:12;100590.16;;;24.28;68.31
73952;BME280;62304;47.662;18.324;2023-10-13T09:01:51;100594.81;;;24.69;66.17
73952;BME280;62304;47.662;18.324;2023-10-13T09:05:24;100587.66;;;24.52;66.36
73952;BME280;62304;47.662;18.324;2023-10-13T09:09:06;100599.37;;;23.95;65.98
73952;BME280;62304;47.662;18.324;2023-10-13T09:12:14;100597.31;;;23.83;67.13
73952;BME280;62304;47.662;18.324;2023-10-13T09:15:29;100587.22;;;24.07;66.89
73952;BME280;62304;47.662;18.324;2023-10-13T09:19:01;100591.84;;;24.26;65.83
73952;BME280;62304;47.662;18.324;2023-10-13T09:22:07;100580.59;;;24.35;65.49
73952;BME280;62304;47.662;18.324;2023-10-13T09:25:10;100575.03;;;24.99;64.05
73952;BME280;62304;47.662;18.324;2023-10-13T09:28:16;100569.28;;;26.30;59.91
73952;BME280;62304;47.662;18.324;2023-10-13T09:31:22;100569.00;;;27.27;56.06
73952;BME280;62304;47.662;18.324;2023-10-13T09:34:29;100563.81;;;28.00;53.21
73952;BME280;62304;47.662;18.324;2023-10-13T09:37:40;100570.75;;;28.93;50.52
73952;BME280;62304;47.662;18.324;2023-10-13T09:40:44;100574.25;;;29.40;47.64
73952;BME280;62304;47.662;18.324;2023-10-13T09:44:16;100574.62;;;29.77;48.41
73952;BME280;62304;47.662;18.324;2023-10-13T09:47:22;100582.22;;;29.65;47.91
73952;BME280;62304;47.662;18.324;2023-10-13T09:50:45;100586.72;;;30.55;44.78
73952;BME280;62304;47.662;18.324;2023-10-13T09:54:03;100573.16;;;30.16;41.20
73952;BME280;62304;47.662;18.324;2023-10-13T09:57:35;100575.59;;;29.74;44.21
73952;BME280;62304;47.662;18.324;2023-10-13T10:00:51;100578.53;;;29.94;43.58
73952;BME280;62304;47.662;18.324;2023-10-13T10:04:10;100578.59;;;30.14;43.75
73952;BME280;62304;47.662;18.324;2023-10-13T10:07:29;100567.34;;;29.32;45.28
73952;BME280;62304;47.662;18.324;2023-10-13T10:11:00;100560.19;;;28.84;46.38
73952;BME280;62304;47.662;18.324;2023-10-13T10:14:16;100559.25;;;28.64;43.61
73952;BME280;62304;47.662;18.324;2023-10-13T10:17:23;100556.09;;;28.15;48.43
73952;BME280;62304;47.662;18.324;2023-10-13T10:23:52;100547.66;;;27.64;48.24
73952;BME280;62304;47.662;18.324;2023-10-13T10:26:57;100553.97;;;28.01;47.05
73952;BME280;62304;47.662;18.324;2023-10-13T10:30:01;100549.16;;;27.83;48.31
73952;BME280;62304;47.662;18.324;2023-10-13T10:33:06;100543.97;;;27.73;48.06
73952;BME280;62304;47.662;18.324;2023-10-13T10:36:28;100542.06;;;27.79;49.36
73952;BME280;62304;47.662;18.324;2023-10-13T10:39:34;100541.25;;;28.72;45.99
73952;BME280;62304;47.662;18.324;2023-10-13T10:42:51;100537.09;;;28.59;44.78
73952;BME280;62304;47.662;18.324;2023-10-13T10:45:56;100531.97;;;29.01;47.71
73952;BME280;62304;47.662;18.324;2023-10-13T10:49:05;100526.91;;;29.68;45.33
73952;BME280;62304;47.662;18.324;2023-10-13T10:52:11;100521.66;;;30.81;40.89
73952;BME280;62304;47.662;18.324;2023-10-13T10:55:21;100521.75;;;30.07;42.13
73952;BME280;62304;47.662;18.324;2023-10-13T10:58:34;100515.75;;;30.05;40.67
73952;BME280;62304;47.662;18.324;2023-10-13T11:01:47;100515.50;;;29.39;43.76
73952;BME280;62304;47.662;18.324;2023-10-13T11:04:51;100504.53;;;28.80;42.71
73952;BME280;62304;47.662;18.324;2023-10-13T11:07:57;100513.72;;;28.84;42.68
73952;BME280;62304;47.662;18.324;2023-10-13T11:11:00;100506.25;;;29.01;44.84
73952;BME280;62304;47.662;18.324;2023-10-13T11:14:04;100495.22;;;28.94;45.50
73952;BME280;62304;47.662;18.324;2023-10-13T11:17:20;100504.97;;;29.02;46.43
73952;BME280;62304;47.662;18.324;2023-10-13T11:20:28;100491.75;;;29.33;44.50
73952;BME280;62304;47.662;18.324;2023-10-13T11:23:36;100494.72;;;28.95;44.14
73952;BME280;62304;47.662;18.324;2023-10-13T11:26:39;100493.72;;;29.56;43.47
73952;BME280;62304;47.662;18.324;2023-10-13T11:29:52;100482.38;;;29.47;44.01
73952;BME280;62304;47.662;18.324;2023-10-13T11:33:00;100487.22;;;29.41;44.42
73952;BME280;62304;47.662;18.324;2023-10-13T11:36:07;100481.91;;;30.43;41.82
73952;BME280;62304;47.662;18.324;2023-10-13T11:39:18;100474.25;;;30.35;41.81
73952;BME280;62304;47.662;18.324;2023-10-13T11:42:35;100471.75;;;30.02;42.68
73952;BME280;62304;47.662;18.324;2023-10-13T11:45:40;100467.28;;;30.36;41.64
73952;BME280;62304;47.662;18.324;2023-10-13T11:48:59;100458.81;;;30.98;39.40
73952;BME280;62304;47.662;18.324;2023-10-13T11:52:11;100462.81;;;31.37;40.59
73952;BME280;62304;47.662;18.324;2023-10-13T11:55:19;100465.81;;;32.54;38.10
73952;BME280;62304;47.662;18.324;2023-10-13T11:58:23;100457.03;;;33.18;35.65
73952;BME280;62304;47.662;18.324;2023-10-13T12:01:27;100456.75;;;32.13;38.74
73952;BME280;62304;47.662;18.324;2023-10-13T12:04:50;100455.75;;;31.69;39.73
73952;BME280;62304;47.662;18.324;2023-10-13T12:08:07;100449.00;;;30.79;41.69
73952;BME280;62304;47.662;18.324;2023-10-13T12:11:22;100453.31;;;30.94;38.27
73952;BME280;62304;47.662;18.324;2023-10-13T12:14:35;100445.66;;;31.79;36.77
73952;BME280;62304;47.662;18.324;2023-10-13T12:17:55;100440.81;;;32.01;37.25
73952;BME280;62304;47.662;18.324;2023-10-13T12:21:08;100437.16;;;33.53;32.97
73952;BME280;62304;47.662;18.324;2023-10-13T12:24:11;100439.22;;;33.69;31.68
73952;BME280;62304;47.662;18.324;2023-10-13T12:27:25;100433.78;;;33.38;34.76
73952;BME280;62304;47.662;18.324;2023-10-13T12:30:38;100431.94;;;33.13;33.33
73952;BME280;62304;47.662;18.324;2023-10-13T12:33:57;100421.50;;;32.93;34.00
73952;BME280;62304;47.662;18.324;2023-10-13T12:37:10;100422.28;;;33.38;34.24
73952;BME280;62304;47.662;18.324;2023-10-13T12:40:37;100414.72;;;34.14;31.54
73952;BME280;62304;47.662;18.324;2023-10-13T12:43:59;100420.97;;;33.44;32.38
73952;BME280;62304;47.662;18.324;2023-10-13T12:47:22;100418.69;;;34.05;31.80
73952;BME280;62304;47.662;18.324;2023-10-13T12:50:44;100418.00;;;33.88;32.21
73952;BME280;62304;47.662;18.324;2023-10-13T12:53:48;100414.22;;;34.15;31.40
73952;BME280;62304;47.662;18.324;2023-10-13T12:56:52;100408.44;;;32.98;33.72
73952;BME280;62304;47.662;18.324;2023-10-13T13:00:00;100407.06;;;32.66;33.80
73952;BME280;62304;47.662;18.324;2023-10-13T13:03:22;100406.78;;;32.47;34.08
73952;BME280;62304;47.662;18.324;2023-10-13T13:06:31;100406.28;;;32.71;34.20
73952;BME280;62304;47.662;18.324;2023-10-13T13:09:35;100406.84;;;32.91;33.84
73952;BME280;62304;47.662;18.324;2023-10-13T13:12:41;100393.03;;;32.79;34.28
73952;BME280;62304;47.662;18.324;2023-10-13T13:15:45;100393.47;;;32.44;34.68
73952;BME280;62304;47.662;18.324;2023-10-13T13:18:49;100396.91;;;31.79;34.84
73952;BME280;62304;47.662;18.324;2023-10-13T13:21:53;100392.97;;;31.76;34.89
73952;BME280;62304;47.662;18.324;2023-10-13T13:24:55;100377.28;;;31.30;35.82
73952;BME280;62304;47.662;18.324;2023-10-13T13:27:58;100381.25;;;31.07;36.33
73952;BME280;62304;47.662;18.324;2023-10-13T13:31:11;100372.25;;;30.32;37.06
73952;BME280;62304;47.662;18.324;2023-10-13T13:34:19;100381.84;;;30.09;37.36
73952;BME280;62304;47.662;18.324;2023-10-13T13:37:24;100376.13;;;29.89;37.74
73952;BME280;62304;47.662;18.324;2023-10-13T13:40:30;100368.12;;;29.73;37.75
73952;BME280;62304;47.662;18.324;2023-10-13T13:43:37;100367.44;;;29.43;38.11
73952;BME280;62304;47.662;18.324;2023-10-13T13:46:42;100370.62;;;28.67;39.53
73952;BME280;62304;47.662;18.324;2023-10-13T13:49:45;100373.53;;;28.15;39.89
73952;BME280;62304;47.662;18.324;2023-10-13T13:52:56;100366.16;;;27.94;41.00
73952;BME280;62304;47.662;18.324;2023-10-13T13:56:02;100363.84;;;27.36;41.68
73952;BME280;62304;47.662;18.324;2023-10-13T13:59:06;100363.00;;;27.12;43.83
73952;BME280;62304;47.662;18.324;2023-10-13T14:02:12;100366.13;;;27.23;42.58
73952;BME280;62304;47.662;18.324;2023-10-13T14:05:25;100356.25;;;27.01;43.31
73952;BME280;62304;47.662;18.324;2023-10-13T14:08:29;100361.06;;;26.86;43.87
73952;BME280;62304;47.662;18.324;2023-10-13T14:11:33;100355.72;;;26.79;43.99
73952;BME280;62304;47.662;18.324;2023-10-13T14:14:42;100359.59;;;26.58;44.38
73952;BME280;62304;47.662;18.324;2023-10-13T14:17:52;100353.31;;;26.36;45.64
73952;BME280;62304;47.662;18.324;2023-10-13T14:20:57;100351.09;;;26.31;45.65
73952;BME280;62304;47.662;18.324;2023-10-13T14:24:07;100345.41;;;26.22;46.12
73952;BME280;62304;47.662;18.324;2023-10-13T14:27:19;100342.44;;;26.16;46.03
73952;BME280;62304;47.662;18.324;2023-10-13T14:30:25;100339.75;;;26.04;46.49
73952;BME280;62304;47.662;18.324;2023-10-13T14:33:34;100335.81;;;26.01;47.09
73952;BME280;62304;47.662;18.324;2023-10-13T14:36:43;100341.66;;;25.98;47.65
73952;BME280;62304;47.662;18.324;2023-10-13T14:39:51;100334.72;;;25.90;47.84
73952;BME280;62304;47.662;18.324;2023-10-13T14:42:54;100335.63;;;25.78;48.16
73952;BME280;62304;47.662;18.324;2023-10-13T14:45:59;100329.16;;;25.68;48.54
73952;BME280;62304;47.662;18.324;2023-10-13T14:49:04;100337.72;;;25.59;49.29
73952;BME280;62304;47.662;18.324;2023-10-13T14:52:07;100333.88;;;25.53;49.85
73952;BME280;62304;47.662;18.324;2023-10-13T14:55:14;100331.69;;;25.48;50.40
73952;BME280;62304;47.662;18.324;2023-10-13T14:58:41;100332.44;;;25.40;50.56
73952;BME280;62304;47.662;18.324;2023-10-13T15:01:45;100336.56;;;25.30;51.60
73952;BME280;62304;47.662;18.324;2023-10-13T15:04:49;100336.81;;;25.23;51.36
73952;BME280;62304;47.662;18.324;2023-10-13T15:07:53;100329.41;;;25.16;51.73
73952;BME280;62304;47.662;18.324;2023-10-13T15:10:56;100326.69;;;25.04;53.29
73952;BME280;62304;47.662;18.324;2023-10-13T15:14:02;100325.72;;;24.98;52.83
73952;BME280;62304;47.662;18.324;2023-10-13T15:17:06;100329.78;;;24.88;53.58
73952;BME280;62304;47.662;18.324;2023-10-13T15:20:12;100329.13;;;24.75;54.14
73952;BME280;62304;47.662;18.324;2023-10-13T15:23:21;100330.34;;;24.65;54.24
73952;BME280;62304;47.662;18.324;2023-10-13T15:26:26;100344.41;;;24.47;55.18
73952;BME280;62304;47.662;18.324;2023-10-13T15:29:33;100342.75;;;24.37;54.90
73952;BME280;62304;47.662;18.324;2023-10-13T15:32:40;100346.59;;;24.21;54.98
73952;BME280;62304;47.662;18.324;2023-10-13T15:35:47;100340.03;;;24.03;55.63
73952;BME280;62304;47.662;18.324;2023-10-13T15:38:51;100342.91;;;23.90;55.47
73952;BME280;62304;47.662;18.324;2023-10-13T15:41:55;100334.31;;;23.81;54.45
73952;BME280;62304;47.662;18.324;2023-10-13T15:45:02;100327.78;;;23.72;53.26
73952;BME280;62304;47.662;18.324;2023-10-13T15:48:19;100327.69;;;23.63;53.29
73952;BME280;62304;47.662;18.324;2023-10-13T15:51:27;100339.69;;;23.45;54.16
73952;BME280;62304;47.662;18.324;2023-10-13T15:54:31;100326.56;;;23.26;54.54
73952;BME280;62304;47.662;18.324;2023-10-13T15:57:34;100332.47;;;23.07;55.17
73952;BME280;62304;47.662;18.324;2023-10-13T16:00:38;100338.72;;;22.89;55.95
73952;BME280;62304;47.662;18.324;2023-10-13T16:03:45;100333.75;;;22.68;56.65
73952;BME280;62304;47.662;18.324;2023-10-13T16:06:54;100338.03;;;22.48;58.25
73952;BME280;62304;47.662;18.324;2023-10-13T16:09:59;100345.34;;;22.33;58.88
73952;BME280;62304;47.662;18.324;2023-10-13T16:13:05;100341.34;;;22.18;59.65
73952;BME280;62304;47.662;18.324;2023-10-13T16:16:20;100335.53;;;21.96;61.19
73952;BME280;62304;47.662;18.324;2023-10-13T16:19:27;100338.87;;;21.79;61.78
73952;BME280;62304;47.662;18.324;2023-10-13T16:22:32;100331.66;;;21.62;61.91
73952;BME280;62304;47.662;18.324;2023-10-13T16:25:35;100333.25;;;21.47;62.56